Time;durP1;ratioP1;P1;durP2;ratioP2;P2;SDS_P1;SDS_P2;PMS_P1;PMS_P2;Temp;Humidity;BMP_temperature;BMP_pressure;BME280_temperature;BME280_humidity;BME280_pressure;Samples;Min_cycle;Max_cycle;Signal;HPM_P1;HPM_P2
2023/01/01 00:00:22;;;;;;;15.70;9.95;;;13.70;99.90;;;;;;5052651;28;20108;-77
2023/01/01 00:02:48;;;;;;;18.73;10.13;;;13.60;99.90;;;;;;5070371;28;20074;-78
2023/01/01 00:05:13;;;;;;;15.23;8.82;;;13.60;99.90;;;;;;5070090;28;20036;-77
2023/01/01 00:07:39;;;;;;;15.25;8.82;;;13.60;99.90;;;;;;5070352;28;20028;-76
2023/01/01 00:12:49;;;;;;;14.85;7.82;;;13.60;99.90;;;;;;5064489;28;20726;-78
2023/01/01 00:15:14;;;;;;;13.35;6.70;;;13.60;99.90;;;;;;5070046;28;20029;-76
2023/01/01 00:17:40;;;;;;;10.95;6.13;;;13.60;99.90;;;;;;5049079;28;20078;-77
2023/01/01 00:20:06;;;;;;;9.05;5.63;;;13.60;99.90;;;;;;5055220;28;20036;-76
2023/01/01 00:22:32;;;;;;;16.13;7.40;;;13.60;99.90;;;;;;5040610;28;20067;-77
2023/01/01 00:24:57;;;;;;;12.40;5.60;;;13.70;99.90;;;;;;5065335;28;20048;-76
2023/01/01 00:27:23;;;;;;;9.68;5.57;;;13.70;99.90;;;;;;5050847;28;20021;-77
2023/01/01 00:29:48;;;;;;;9.38;4.32;;;13.70;99.90;;;;;;5052359;28;20027;-77
2023/01/01 00:32:14;;;;;;;12.75;5.38;;;13.80;99.90;;;;;;5052382;28;20021;-77
2023/01/01 00:34:40;;;;;;;10.10;5.22;;;13.80;99.90;;;;;;5044394;28;20025;-76
2023/01/01 00:37:05;;;;;;;15.15;5.25;;;13.90;99.90;;;;;;5064265;28;20392;-78
2023/01/01 00:39:31;;;;;;;11.75;5.70;;;13.90;99.90;;;;;;5052007;28;20028;-78
2023/01/01 00:41:56;;;;;;;10.82;5.15;;;14.00;99.90;;;;;;5053806;28;20024;-76
2023/01/01 00:44:22;;;;;;;8.43;5.00;;;14.00;99.90;;;;;;5055760;28;20028;-77
2023/01/01 00:46:47;;;;;;;12.27;6.05;;;14.00;99.90;;;;;;5074157;28;20105;-78
2023/01/01 00:49:13;;;;;;;12.82;6.85;;;14.00;99.90;;;;;;5073968;28;20508;-77
2023/01/01 00:51:38;;;;;;;13.27;6.68;;;13.90;99.90;;;;;;5055579;28;20021;-76
2023/01/01 00:54:05;;;;;;;13.82;6.43;;;13.90;99.90;;;;;;5052788;28;20048;-77
2023/01/01 00:56:31;;;;;;;14.73;6.35;;;14.00;99.90;;;;;;5070124;28;20100;-76
2023/01/01 00:58:57;;;;;;;11.77;6.20;;;14.00;99.90;;;;;;5065204;28;20078;-77
2023/01/01 01:01:22;;;;;;;12.55;6.30;;;14.00;99.90;;;;;;5071146;28;20032;-77
2023/01/01 01:03:48;;;;;;;11.50;6.97;;;14.00;99.90;;;;;;5046090;28;20035;-76
2023/01/01 01:06:16;;;;;;;13.95;7.85;;;14.00;99.90;;;;;;5071339;28;20031;-77
2023/01/01 01:08:44;;;;;;;12.52;6.95;;;14.00;99.90;;;;;;5055678;28;20078;-78
2023/01/01 01:11:11;;;;;;;14.73;7.35;;;14.00;99.90;;;;;;5074649;28;20019;-78
2023/01/01 01:13:38;;;;;;;14.60;7.10;;;14.00;99.90;;;;;;5057502;28;20119;-77
2023/01/01 01:16:16;;;;;;;13.55;8.07;;;14.00;99.90;;;;;;5058279;28;20025;-78
2023/01/01 01:18:42;;;;;;;12.35;6.70;;;13.90;99.90;;;;;;5048327;28;20020;-78
2023/01/01 01:21:07;;;;;;;11.45;7.03;;;13.90;99.90;;;;;;5055174;28;20531;-77
2023/01/01 01:23:33;;;;;;;13.65;5.82;;;13.90;99.90;;;;;;5055257;28;20396;-77
2023/01/01 01:26:11;;;;;;;18.48;7.30;;;13.90;99.90;;;;;;5073195;28;20012;-78
2023/01/01 01:28:37;;;;;;;12.63;5.70;;;14.00;99.90;;;;;;5034952;28;20116;-77
2023/01/01 01:31:03;;;;;;;13.77;6.28;;;14.10;99.90;;;;;;5068906;28;20095;-77
2023/01/01 01:33:28;;;;;;;9.93;5.38;;;14.10;99.90;;;;;;5043858;28;20028;-78
2023/01/01 01:35:54;;;;;;;16.02;6.18;;;14.20;99.90;;;;;;5070884;28;20016;-78
2023/01/01 01:38:19;;;;;;;9.85;5.03;;;14.20;99.90;;;;;;5055102;28;20077;-78
2023/01/01 01:40:45;;;;;;;10.55;4.85;;;14.20;99.90;;;;;;5072922;28;20070;-77
2023/01/01 01:43:23;;;;;;;9.80;4.28;;;14.10;99.90;;;;;;5054722;28;20104;-76
2023/01/01 01:45:54;;;;;;;7.93;4.40;;;14.20;99.90;;;;;;5049476;28;20090;-77
2023/01/01 01:48:22;;;;;;;8.45;3.83;;;14.20;99.90;;;;;;5054176;28;20031;-77
2023/01/01 01:50:51;;;;;;;9.70;4.10;;;14.20;99.90;;;;;;5052875;28;20032;-77
2023/01/01 01:53:23;;;;;;;8.15;4.63;;;14.20;99.90;;;;;;5051300;28;20117;-77
2023/01/01 01:56:11;;;;;;;9.07;3.70;;;14.20;99.90;;;;;;5066528;28;20036;-78
2023/01/01 01:58:37;;;;;;;8.13;3.90;;;14.20;99.90;;;;;;5064478;28;20024;-76
2023/01/01 02:01:03;;;;;;;9.13;3.78;;;14.10;99.90;;;;;;5072308;28;20027;-76
2023/01/01 02:03:38;;;;;;;8.43;4.00;;;14.20;99.90;;;;;;5053916;28;20112;-77
2023/01/01 02:06:04;;;;;;;7.43;4.00;;;14.10;99.90;;;;;;5072143;28;20028;-77
2023/01/01 02:08:31;;;;;;;10.60;3.92;;;14.20;99.90;;;;;;5054032;28;20259;-78
2023/01/01 02:10:56;;;;;;;9.25;3.92;;;14.20;99.90;;;;;;5072624;28;20092;-78
2023/01/01 02:13:22;;;;;;;10.30;3.67;;;14.20;99.90;;;;;;5043655;28;20501;-77
2023/01/01 02:16:04;;;;;;;7.95;3.55;;;14.20;99.90;;;;;;5061996;28;20501;-77
2023/01/01 02:18:54;;;;;;;8.10;4.47;;;14.20;99.90;;;;;;5071722;28;20457;-77
2023/01/01 02:21:31;;;;;;;14.63;3.90;;;14.20;99.90;;;;;;5071628;28;20396;-77
2023/01/01 02:24:20;;;;;;;7.35;3.95;;;14.20;99.90;;;;;;5041017;28;20029;-77
2023/01/01 02:27:27;;;;;;;5.85;3.70;;;14.10;99.90;;;;;;5071526;28;20036;-77
2023/01/01 02:30:05;;;;;;;11.63;4.10;;;14.00;99.90;;;;;;5058406;28;20048;-78
2023/01/01 02:32:35;;;;;;;8.82;4.18;;;14.00;99.90;;;;;;5053843;28;20320;-78
2023/01/01 02:37:55;;;;;;;9.35;3.50;;;14.00;99.90;;;;;;5058129;28;20078;-77
2023/01/01 02:40:23;;;;;;;10.93;4.53;;;14.00;99.90;;;;;;5054766;28;20504;-76
2023/01/01 02:42:51;;;;;;;10.15;4.20;;;14.00;99.90;;;;;;5038263;28;20028;-76
2023/01/01 02:45:17;;;;;;;7.72;4.10;;;13.90;99.90;;;;;;5070918;28;20067;-77
2023/01/01 02:47:42;;;;;;;10.07;4.30;;;13.90;99.90;;;;;;5057795;28;20020;-77
2023/01/01 02:50:13;;;;;;;7.05;5.00;;;13.80;99.90;;;;;;5063578;28;20590;-77
2023/01/01 02:52:45;;;;;;;5.85;4.30;;;13.90;99.90;;;;;;5071593;28;20020;-78
2023/01/01 02:55:22;;;;;;;6.75;4.00;;;13.90;99.90;;;;;;5053460;28;20253;-78
2023/01/01 03:00:57;;;;;;;12.25;4.47;;;13.90;99.90;;;;;;5071342;28;20052;-78
2023/01/01 03:03:35;;;;;;;7.28;4.55;;;13.90;99.90;;;;;;5062223;28;20385;-79
2023/01/01 03:06:23;;;;;;;7.95;4.35;;;13.90;99.90;;;;;;5050676;28;20024;-78
2023/01/01 03:08:55;;;;;;;9.55;5.38;;;14.00;99.90;;;;;;5061960;28;20062;-77
2023/01/01 03:11:24;;;;;;;10.52;5.35;;;14.10;99.90;;;;;;5071146;28;20067;-77
2023/01/01 03:14:02;;;;;;;11.55;5.30;;;14.10;99.90;;;;;;5070960;28;20393;-77
2023/01/01 03:16:43;;;;;;;12.75;5.88;;;14.10;99.90;;;;;;5070655;28;20127;-77
2023/01/01 03:19:22;;;;;;;10.32;5.30;;;14.00;99.90;;;;;;5070786;28;20034;-77
2023/01/01 03:21:59;;;;;;;10.45;6.18;;;14.00;99.90;;;;;;5052931;28;20020;-77
2023/01/01 03:24:30;;;;;;;10.77;5.53;;;14.00;99.90;;;;;;5070307;28;20043;-78
2023/01/01 03:27:08;;;;;;;13.88;6.28;;;13.90;99.90;;;;;;5052604;28;20509;-77
2023/01/01 03:29:37;;;;;;;10.23;5.82;;;13.90;99.90;;;;;;5040399;28;20110;-78
2023/01/01 03:32:04;;;;;;;10.13;5.88;;;13.90;99.90;;;;;;5070614;28;20086;-79
2023/01/01 03:34:41;;;;;;;10.95;6.32;;;13.90;99.90;;;;;;5052348;28;20024;-77
2023/01/01 03:37:12;;;;;;;10.60;5.40;;;13.90;99.90;;;;;;5070824;28;20059;-77
2023/01/01 03:39:47;;;;;;;13.27;6.72;;;13.90;99.90;;;;;;5072968;28;20081;-78
2023/01/01 03:42:34;;;;;;;11.40;6.20;;;13.90;99.90;;;;;;5072637;28;20021;-78
2023/01/01 03:45:05;;;;;;;9.88;6.68;;;13.90;99.90;;;;;;5072160;28;20437;-77
2023/01/01 03:47:31;;;;;;;9.43;6.00;;;13.80;99.90;;;;;;5092713;23;20041;-58
2023/01/01 03:49:58;;;;;;;9.82;5.80;;;13.80;99.90;;;;;;5038064;28;20018;-59
2023/01/01 03:52:36;;;;;;;11.77;6.60;;;13.80;99.90;;;;;;5044109;28;20045;-61
2023/01/01 03:55:14;;;;;;;9.80;6.22;;;13.80;99.90;;;;;;5033395;28;20022;-60
2023/01/01 03:58:02;;;;;;;12.30;7.53;;;13.80;99.90;;;;;;5031680;28;20497;-59
2023/01/01 04:00:45;;;;;;;11.05;7.45;;;13.80;99.90;;;;;;5040285;28;20036;-60
2023/01/01 04:03:21;;;;;;;11.88;7.50;;;13.90;99.90;;;;;;5038675;28;20013;-61
2023/01/01 04:05:47;;;;;;;13.15;7.47;;;13.90;99.90;;;;;;5040690;28;20408;-61
2023/01/01 04:08:14;;;;;;;8.32;6.47;;;13.90;99.90;;;;;;5037992;28;20017;-62
2023/01/01 04:12:00;;;;;;;13.30;6.93;;;13.90;99.90;;;;;;5039617;28;20025;-61
2023/01/01 04:13:48;;;;;;;9.73;7.28;;;13.80;99.90;;;;;;5036962;28;20037;-61
2023/01/01 04:16:14;;;;;;;13.48;8.10;;;13.80;99.90;;;;;;5039829;28;20021;-61
2023/01/01 04:18:39;;;;;;;10.65;6.60;;;13.90;99.90;;;;;;5037107;28;20025;-61
2023/01/01 04:21:05;;;;;;;11.15;6.68;;;13.80;99.90;;;;;;5043668;28;20051;-62
2023/01/01 04:23:30;;;;;;;12.18;6.43;;;13.80;99.90;;;;;;5037280;28;20116;-61
2023/01/01 04:25:56;;;;;;;12.88;7.40;;;13.90;99.90;;;;;;5042548;28;20033;-60
2023/01/01 04:28:21;;;;;;;10.27;5.93;;;13.90;99.90;;;;;;5038779;28;20029;-62
2023/01/01 04:30:47;;;;;;;7.93;6.32;;;13.80;99.90;;;;;;5042555;28;20025;-61
2023/01/01 04:33:12;;;;;;;8.85;6.18;;;13.80;99.90;;;;;;5038430;28;20029;-61
2023/01/01 04:35:38;;;;;;;10.40;6.47;;;13.80;99.90;;;;;;5036721;28;20527;-61
2023/01/01 04:38:03;;;;;;;11.00;5.78;;;13.80;99.90;;;;;;5043497;28;20040;-61
2023/01/01 04:40:29;;;;;;;15.95;6.68;;;13.70;99.90;;;;;;5037411;28;20400;-60
2023/01/01 04:42:55;;;;;;;9.75;6.10;;;13.70;99.90;;;;;;5041459;28;20056;-60
2023/01/01 04:45:20;;;;;;;10.25;5.80;;;13.70;99.90;;;;;;5038053;28;20529;-62
2023/01/01 04:47:46;;;;;;;12.35;5.65;;;13.80;99.90;;;;;;5036696;28;20021;-61
2023/01/01 04:50:11;;;;;;;9.68;5.07;;;13.80;99.90;;;;;;5043626;28;20031;-60
2023/01/01 04:52:37;;;;;;;9.73;5.30;;;13.70;99.90;;;;;;5037074;28;20029;-61
2023/01/01 04:55:02;;;;;;;14.98;5.65;;;13.70;99.90;;;;;;5043679;28;20029;-60
2023/01/01 04:57:29;;;;;;;8.55;5.03;;;13.70;99.90;;;;;;5037367;28;20392;-61
2023/01/01 04:59:55;;;;;;;14.30;4.70;;;13.80;99.90;;;;;;5037276;28;20022;-61
2023/01/01 05:02:20;;;;;;;7.97;4.72;;;13.70;99.90;;;;;;5042796;28;20040;-60
2023/01/01 05:04:46;;;;;;;10.23;4.40;;;13.80;99.90;;;;;;5036606;28;20017;-61
2023/01/01 05:07:11;;;;;;;9.15;4.80;;;13.70;99.90;;;;;;5043800;28;20017;-61
2023/01/01 05:09:37;;;;;;;12.20;4.28;;;13.80;99.90;;;;;;5036733;28;20030;-60
2023/01/01 05:12:02;;;;;;;9.25;5.00;;;13.80;99.90;;;;;;5043936;28;20021;-60
2023/01/01 05:14:28;;;;;;;10.85;4.80;;;13.70;99.90;;;;;;5035687;28;20025;-62
2023/01/01 05:16:53;;;;;;;8.75;3.58;;;13.70;99.90;;;;;;5035211;28;20397;-61
2023/01/01 05:19:19;;;;;;;7.20;4.25;;;13.60;99.90;;;;;;5042619;28;20100;-60
2023/01/01 05:21:45;;;;;;;7.72;4.18;;;13.70;99.90;;;;;;5036967;28;20045;-59
2023/01/01 05:24:11;;;;;;;8.32;5.03;;;13.70;99.90;;;;;;5043282;28;20687;-58
2023/01/01 05:26:40;;;;;;;8.75;3.75;;;13.60;99.90;;;;;;5036149;28;20021;-60
2023/01/01 05:29:06;;;;;;;8.93;3.67;;;13.70;99.90;;;;;;5045965;28;20508;-58
2023/01/01 05:31:33;;;;;;;8.27;4.00;;;13.70;99.90;;;;;;5033745;28;20033;-59
2023/01/01 05:34:00;;;;;;;8.73;3.13;;;13.70;99.90;;;;;;5038751;28;20159;-58
2023/01/01 05:36:28;;;;;;;9.95;4.35;;;13.80;99.90;;;;;;5042699;28;20025;-59
2023/01/01 05:38:54;;;;;;;10.10;3.28;;;13.80;99.90;;;;;;5044861;28;20503;-60
2023/01/01 05:41:21;;;;;;;9.93;3.40;;;13.90;99.90;;;;;;5042314;28;20100;-60
2023/01/01 05:43:47;;;;;;;6.47;3.30;;;13.90;99.90;;;;;;5043912;28;20036;-62
2023/01/01 05:46:16;;;;;;;7.30;3.15;;;14.00;99.90;;;;;;5039324;28;20459;-60
2023/01/01 05:48:42;;;;;;;5.63;2.55;;;14.00;99.90;;;;;;5043266;28;20033;-61
2023/01/01 05:51:28;;;;;;;8.07;2.83;;;14.00;99.90;;;;;;5041780;28;20022;-61
2023/01/01 05:53:54;;;;;;;7.03;3.22;;;13.90;99.90;;;;;;5043351;28;20433;-59
2023/01/01 05:56:20;;;;;;;5.60;2.92;;;13.90;99.90;;;;;;5041002;28;20017;-61
2023/01/01 05:58:46;;;;;;;9.25;2.88;;;13.90;99.90;;;;;;5043149;28;20087;-61
2023/01/01 06:01:23;;;;;;;5.45;3.03;;;13.90;99.90;;;;;;5040841;28;20022;-60
2023/01/01 06:03:50;;;;;;;6.60;2.70;;;13.80;99.90;;;;;;5043136;28;20032;-58
2023/01/01 06:06:18;;;;;;;6.57;2.95;;;13.80;99.90;;;;;;5041560;28;20029;-61
2023/01/01 06:08:55;;;;;;;8.23;3.35;;;13.90;99.90;;;;;;5043022;28;20540;-61
2023/01/01 06:11:21;;;;;;;6.15;2.88;;;13.80;99.90;;;;;;5041987;28;20049;-61
2023/01/01 06:13:47;;;;;;;5.95;3.40;;;13.80;99.90;;;;;;5043228;28;20123;-61
2023/01/01 06:16:13;;;;;;;6.75;3.10;;;13.80;99.90;;;;;;5041713;28;20670;-61
2023/01/01 06:18:39;;;;;;;11.93;3.20;;;13.80;99.90;;;;;;5040520;28;20025;-61
2023/01/01 06:21:06;;;;;;;6.60;2.80;;;13.80;99.90;;;;;;5043330;28;20071;-61
2023/01/01 06:23:32;;;;;;;5.57;2.70;;;13.80;99.90;;;;;;5041011;28;20456;-61
2023/01/01 06:26:04;;;;;;;7.22;2.17;;;13.90;99.90;;;;;;5041036;28;20067;-60
2023/01/01 06:28:29;;;;;;;3.83;2.40;;;13.90;99.90;;;;;;5042210;28;20500;-60
2023/01/01 06:30:59;;;;;;;6.57;2.47;;;13.90;99.90;;;;;;5042717;28;20025;-60
2023/01/01 06:33:24;;;;;;;8.98;2.80;;;13.80;99.90;;;;;;5040118;28;20029;-61
2023/01/01 06:35:50;;;;;;;7.78;3.03;;;13.80;99.90;;;;;;5036821;28;20031;-60
2023/01/01 06:38:15;;;;;;;7.38;2.67;;;13.80;99.90;;;;;;5039577;28;20023;-62
2023/01/01 06:40:41;;;;;;;8.02;3.05;;;13.80;99.90;;;;;;5041249;28;20487;-60
2023/01/01 06:43:06;;;;;;;6.40;2.60;;;13.80;99.90;;;;;;5042460;28;20631;-60
2023/01/01 06:45:32;;;;;;;4.95;2.65;;;13.80;99.90;;;;;;5037956;28;20536;-60
2023/01/01 06:47:57;;;;;;;2.30;2.00;;;13.80;99.90;;;;;;5038836;28;20053;-60
2023/01/01 06:50:23;;;;;;;4.20;2.05;;;13.80;99.90;;;;;;5045009;28;20052;-61
2023/01/01 06:52:48;;;;;;;5.18;2.20;;;13.90;99.90;;;;;;5037741;28;20021;-59
2023/01/01 06:55:14;;;;;;;6.07;2.25;;;13.80;99.90;;;;;;5045798;28;20025;-60
2023/01/01 06:57:39;;;;;;;7.03;2.63;;;13.70;99.90;;;;;;5038744;28;20032;-61
2023/01/01 07:00:06;;;;;;;5.72;2.25;;;13.70;99.90;;;;;;5039068;28;20035;-61
2023/01/01 07:02:31;;;;;;;3.40;1.88;;;13.60;99.90;;;;;;5033164;28;20029;-61
2023/01/01 07:04:57;;;;;;;5.95;2.05;;;13.70;99.90;;;;;;5038192;28;20084;-59
2023/01/01 07:07:22;;;;;;;5.70;2.58;;;13.70;99.90;;;;;;5045054;28;20099;-56
2023/01/01 07:09:48;;;;;;;8.88;2.65;;;13.70;99.90;;;;;;5038404;28;20021;-61
2023/01/01 07:12:13;;;;;;;5.22;2.13;;;13.60;99.90;;;;;;5046363;28;20124;-61
2023/01/01 07:14:39;;;;;;;6.63;2.33;;;13.60;99.90;;;;;;5036772;28;20519;-59
2023/01/01 07:17:04;;;;;;;5.35;2.20;;;13.60;99.90;;;;;;5038544;28;20443;-60
2023/01/01 07:19:30;;;;;;;8.80;2.15;;;13.50;99.90;;;;;;5044311;28;20030;-59
2023/01/01 07:21:55;;;;;;;5.43;2.00;;;13.50;99.90;;;;;;5038053;28;20044;-61
2023/01/01 07:24:21;;;;;;;4.30;1.73;;;13.60;99.90;;;;;;5044789;28;20640;-63
2023/01/01 07:26:47;;;;;;;6.47;2.05;;;13.60;99.90;;;;;;5036417;28;20017;-60
2023/01/01 07:29:13;;;;;;;6.80;2.50;;;13.60;99.90;;;;;;5045926;28;20429;-59
2023/01/01 07:31:42;;;;;;;7.05;2.70;;;13.50;99.90;;;;;;5037797;28;20113;-61
2023/01/01 07:34:14;;;;;;;6.50;2.38;;;13.50;99.90;;;;;;5037867;28;20395;-59
2023/01/01 07:36:40;;;;;;;5.18;1.75;;;13.50;99.90;;;;;;5038341;28;20029;-61
2023/01/01 07:39:06;;;;;;;4.85;2.22;;;13.50;99.90;;;;;;5037115;28;20033;-60
2023/01/01 07:41:31;;;;;;;6.78;2.10;;;13.40;99.90;;;;;;5043625;28;20033;-61
2023/01/01 07:43:57;;;;;;;6.93;1.92;;;13.40;99.90;;;;;;5037697;28;20440;-61
2023/01/01 07:46:22;;;;;;;5.55;1.88;;;13.40;99.90;;;;;;5039877;28;20017;-60
2023/01/01 07:48:48;;;;;;;4.20;1.88;;;13.40;99.90;;;;;;5041253;28;20146;-60
2023/01/01 07:51:14;;;;;;;4.75;2.03;;;13.40;99.90;;;;;;5039123;28;20021;-59
2023/01/01 07:53:39;;;;;;;6.57;1.85;;;13.40;99.90;;;;;;5041207;28;20029;-61
2023/01/01 07:56:05;;;;;;;5.18;2.05;;;13.40;99.90;;;;;;5039022;28;20741;-60
2023/01/01 07:58:31;;;;;;;3.13;1.75;;;13.40;99.90;;;;;;5041071;28;20075;-60
2023/01/01 08:00:56;;;;;;;2.00;1.25;;;13.40;99.90;;;;;;5040035;28;20392;-62
2023/01/01 08:03:22;;;;;;;4.38;2.00;;;13.40;99.90;;;;;;5039906;28;20554;-61
2023/01/01 08:05:47;;;;;;;8.88;2.65;;;13.30;99.90;;;;;;5040720;28;20496;-61
2023/01/01 08:08:13;;;;;;;4.50;2.17;;;13.40;99.90;;;;;;5037730;28;20024;-59
2023/01/01 08:10:38;;;;;;;5.30;1.92;;;13.40;99.90;;;;;;5041106;28;20021;-61
2023/01/01 08:13:06;;;;;;;6.82;2.50;;;13.40;99.90;;;;;;5040599;28;20026;-62
2023/01/01 08:15:33;;;;;;;5.45;1.90;;;13.30;99.90;;;;;;5027176;28;20039;-62
2023/01/01 08:18:00;;;;;;;2.63;1.63;;;13.40;99.90;;;;;;5039787;28;20025;-60
2023/01/01 08:20:27;;;;;;;4.60;1.55;;;13.40;99.90;;;;;;5040185;28;20539;-59
2023/01/01 08:22:53;;;;;;;2.50;1.05;;;13.40;99.90;;;;;;5040821;28;20021;-60
2023/01/01 08:25:18;;;;;;;7.75;1.40;;;13.40;99.90;;;;;;5038203;28;20025;-60
2023/01/01 08:27:44;;;;;;;5.05;1.30;;;13.40;99.90;;;;;;5039621;28;20049;-60
2023/01/01 08:30:12;;;;;;;2.40;1.48;;;13.40;99.90;;;;;;5043932;28;20044;-60
2023/01/01 08:32:37;;;;;;;2.53;0.95;;;13.40;99.90;;;;;;5036519;28;20378;-58
2023/01/01 08:35:03;;;;;;;4.22;1.05;;;13.40;99.90;;;;;;5040175;28;20036;-61
2023/01/01 08:37:29;;;;;;;5.28;1.30;;;13.40;99.90;;;;;;5039985;28;20029;-59
2023/01/01 08:39:55;;;;;;;5.30;1.42;;;13.40;99.90;;;;;;5040690;28;20489;-62
2023/01/01 08:42:21;;;;;;;5.93;1.25;;;13.40;99.90;;;;;;5032308;28;20437;-60
2023/01/01 08:44:46;;;;;;;2.33;1.05;;;13.40;99.90;;;;;;5065735;22;20049;-55
2023/01/01 08:47:24;;;;;;;1.85;0.88;;;13.40;99.90;;;;;;5068767;28;20500;-57
2023/01/01 08:49:50;;;;;;;7.57;1.38;;;13.30;99.90;;;;;;5062171;28;20063;-57
2023/01/01 08:52:17;;;;;;;4.43;1.17;;;13.40;99.90;;;;;;5068489;28;20025;-54
2023/01/01 08:54:42;;;;;;;0.90;0.63;;;13.40;99.90;;;;;;5068744;28;20020;-54
2023/01/01 08:57:08;;;;;;;2.33;1.13;;;13.40;99.90;;;;;;5069069;28;20111;-54
2023/01/01 08:59:34;;;;;;;2.55;1.17;;;13.40;99.90;;;;;;5068742;28;20024;-54
2023/01/01 09:01:59;;;;;;;2.33;1.17;;;13.30;99.90;;;;;;5068682;28;20035;-55
2023/01/01 09:04:25;;;;;;;1.00;0.90;;;13.30;99.90;;;;;;5072088;28;20024;-55
2023/01/01 09:06:51;;;;;;;2.65;0.80;;;13.30;99.90;;;;;;5072306;28;20016;-52
2023/01/01 09:09:17;;;;;;;2.28;0.82;;;13.40;99.90;;;;;;5072326;28;20119;-57
2023/01/01 09:12:02;;;;;;;3.05;1.20;;;13.40;99.90;;;;;;5072470;28;20023;-55
2023/01/01 09:14:28;;;;;;;1.17;1.00;;;13.40;99.90;;;;;;5071796;28;20033;-52
2023/01/01 09:16:54;;;;;;;4.70;1.02;;;13.40;99.90;;;;;;5072322;28;20082;-55
2023/01/01 09:19:19;;;;;;;3.78;1.10;;;13.40;99.90;;;;;;5072434;28;20029;-55
2023/01/01 09:21:45;;;;;;;2.75;1.30;;;13.40;99.90;;;;;;5071863;28;20044;-56
2023/01/01 09:24:10;;;;;;;2.78;1.08;;;13.40;99.90;;;;;;5072113;28;20507;-55
2023/01/01 09:26:36;;;;;;;3.97;1.08;;;13.30;99.90;;;;;;5071513;28;20028;-55
2023/01/01 09:29:02;;;;;;;1.70;1.15;;;13.30;99.90;;;;;;5072093;28;20024;-53
2023/01/01 09:31:27;;;;;;;3.28;0.90;;;13.30;99.90;;;;;;5072050;28;20043;-55
2023/01/01 09:33:53;;;;;;;2.20;1.17;;;13.30;99.90;;;;;;5072179;28;20491;-56
2023/01/01 09:36:21;;;;;;;3.30;1.13;;;13.20;99.90;;;;;;5071737;28;20050;-52
2023/01/01 09:38:50;;;;;;;4.85;0.90;;;13.20;99.90;;;;;;5072052;28;20024;-53
2023/01/01 09:41:16;;;;;;;2.88;0.90;;;13.20;99.90;;;;;;5071814;28;20484;-54
2023/01/01 09:43:53;;;;;;;1.98;0.90;;;13.20;99.90;;;;;;5071384;28;20023;-56
2023/01/01 09:46:18;;;;;;;4.18;1.00;;;13.20;99.90;;;;;;5069771;28;20165;-52
2023/01/01 09:48:55;;;;;;;17.52;1.30;;;13.20;99.90;;;;;;5071693;28;20481;-55
2023/01/01 09:51:22;;;;;;;1.45;0.82;;;13.20;99.90;;;;;;5070148;28;20017;-57
2023/01/01 09:53:59;;;;;;;4.85;1.58;;;13.20;99.90;;;;;;5071693;28;20021;-53
2023/01/01 09:56:27;;;;;;;4.70;0.82;;;13.20;99.90;;;;;;5052958;28;20105;-55
2023/01/01 09:58:55;;;;;;;2.35;0.70;;;13.20;99.90;;;;;;5071285;28;20443;-53
2023/01/01 10:01:53;;;;;;;3.97;0.90;;;13.20;99.90;;;;;;5069936;28;20012;-53
2023/01/01 10:04:45;;;;;;;4.93;0.90;;;13.10;99.90;;;;;;5071109;28;20029;-56
2023/01/01 10:07:32;;;;;;;3.47;1.00;;;13.10;99.90;;;;;;5071310;28;20571;-53
2023/01/01 10:10:31;;;;;;;1.52;0.80;;;13.10;99.90;;;;;;5071401;28;20086;-55
2023/01/01 10:13:14;;;;;;;3.03;0.88;;;13.10;99.90;;;;;;5067257;28;20492;-51
2023/01/01 10:16:03;;;;;;;2.45;0.70;;;13.00;99.90;;;;;;5064055;28;20021;-55
2023/01/01 10:18:32;;;;;;;3.08;1.15;;;13.10;99.90;;;;;;5071249;28;20024;-52
2023/01/01 10:21:16;;;;;;;2.78;0.90;;;13.10;99.90;;;;;;5071138;28;20039;-55
2023/01/01 10:23:59;;;;;;;2.10;1.05;;;13.20;99.90;;;;;;5064422;28;20116;-53
2023/01/01 10:26:28;;;;;;;3.03;0.57;;;13.20;99.90;;;;;;5070585;28;20468;-55
2023/01/01 10:29:01;;;;;;;1.35;0.93;;;13.20;99.90;;;;;;5070962;28;20028;-54
2023/01/01 10:31:33;;;;;;;4.13;1.30;;;13.20;99.90;;;;;;5070847;28;20026;-56
2023/01/01 10:34:13;;;;;;;1.23;0.95;;;13.20;99.90;;;;;;5071269;28;20044;-54
2023/01/01 10:36:38;;;;;;;6.93;1.10;;;13.20;99.90;;;;;;5070009;28;20398;-55
2023/01/01 10:39:04;;;;;;;4.72;1.13;;;13.20;99.90;;;;;;5070814;28;20013;-52
2023/01/01 10:41:30;;;;;;;3.53;1.08;;;13.30;99.90;;;;;;5052667;28;20025;-52
2023/01/01 10:43:56;;;;;;;2.53;0.80;;;13.30;99.90;;;;;;5070302;28;20029;-57
2023/01/01 10:46:23;;;;;;;2.35;1.05;;;13.40;99.90;;;;;;5069794;28;20044;-55
2023/01/01 10:49:10;;;;;;;1.30;0.73;;;13.40;99.90;;;;;;5052755;28;20021;-53
2023/01/01 10:51:43;;;;;;;3.97;0.90;;;13.40;99.90;;;;;;5063286;28;20044;-52
2023/01/01 10:54:38;;;;;;;2.20;0.55;;;13.40;99.90;;;;;;5070546;28;20036;-53
2023/01/01 10:57:26;;;;;;;2.72;1.00;;;13.40;99.90;;;;;;5052391;28;20039;-54
2023/01/01 10:59:51;;;;;;;5.03;1.13;;;13.50;99.90;;;;;;5064634;28;20035;-55
2023/01/01 11:02:21;;;;;;;2.67;0.75;;;13.40;99.90;;;;;;5070346;28;20028;-57
2023/01/01 11:04:48;;;;;;;6.32;1.42;;;13.40;99.90;;;;;;5069103;28;20031;-53
2023/01/01 11:07:32;;;;;;;2.85;0.90;;;13.40;99.90;;;;;;5070181;28;20070;-54
2023/01/01 11:10:03;;;;;;;3.72;1.30;;;13.40;99.90;;;;;;5070133;28;20029;-51
2023/01/01 11:12:34;;;;;;;6.63;0.88;;;13.40;99.90;;;;;;5070252;28;20028;-56
2023/01/01 11:15:00;;;;;;;4.50;1.27;;;13.40;99.90;;;;;;5069631;28;20020;-56
2023/01/01 11:17:32;;;;;;;4.13;1.40;;;13.30;99.90;;;;;;5069849;28;20479;-56
2023/01/01 11:20:00;;;;;;;4.22;1.00;;;13.30;99.90;;;;;;5051951;28;20579;-55
2023/01/01 11:22:46;;;;;;;5.03;1.35;;;13.30;99.90;;;;;;5070646;28;20371;-54
2023/01/01 11:25:22;;;;;;;3.20;1.23;;;13.30;99.90;;;;;;5069141;28;20051;-55
2023/01/01 11:27:48;;;;;;;;;;;13.20;99.90;;;;;;5070245;28;20132;-56
2023/01/01 11:30:21;;;;;;;1.95;0.77;;;13.20;99.90;;;;;;5070009;28;19904;-56
2023/01/01 11:32:48;;;;;;;2.42;1.13;;;13.20;99.90;;;;;;5070130;28;20392;-53
2023/01/01 11:35:23;;;;;;;3.63;1.40;;;13.20;99.90;;;;;;5069396;28;20035;-56
2023/01/01 11:37:52;;;;;;;4.75;0.98;;;13.20;99.90;;;;;;5052120;28;20226;-52
2023/01/01 11:40:22;;;;;;;4.28;1.42;;;13.10;99.90;;;;;;5069675;28;20093;-56
2023/01/01 11:42:55;;;;;;;3.15;1.08;;;13.10;99.90;;;;;;5069880;28;20230;-55
2023/01/01 11:45:25;;;;;;;4.43;1.45;;;13.10;99.90;;;;;;5068909;28;20024;-57
2023/01/01 11:48:04;;;;;;;2.83;1.00;;;13.00;99.90;;;;;;5069614;28;20025;-54
2023/01/01 11:50:35;;;;;;;2.10;0.93;;;13.00;99.90;;;;;;5069905;28;20052;-53
2023/01/01 11:53:22;;;;;;;5.85;1.15;;;12.90;99.90;;;;;;5069748;28;20016;-57
2023/01/01 11:55:53;;;;;;;3.90;1.10;;;12.90;99.90;;;;;;5063809;28;20099;-57
2023/01/01 11:58:26;;;;;;;3.78;1.08;;;12.80;99.90;;;;;;5069756;28;20092;-55
2023/01/01 12:01:01;;;;;;;5.10;1.10;;;12.90;99.90;;;;;;5069744;28;20025;-56
2023/01/01 12:03:30;;;;;;;2.35;0.88;;;12.90;99.90;;;;;;5051401;28;20064;-54
2023/01/01 12:06:07;;;;;;;4.72;1.30;;;12.80;99.90;;;;;;5069182;28;20031;-58
2023/01/01 12:08:36;;;;;;;2.53;1.17;;;12.80;99.90;;;;;;5061931;28;20401;-55
2023/01/01 12:11:16;;;;;;;3.10;0.98;;;12.80;99.90;;;;;;5069640;28;20020;-54
2023/01/01 12:13:51;;;;;;;6.88;1.13;;;12.80;99.90;;;;;;5062743;28;20111;-53
2023/01/01 12:16:26;;;;;;;7.70;1.67;;;12.90;99.90;;;;;;5068931;28;20407;-54
2023/01/01 12:19:21;;;;;;;6.15;1.55;;;12.90;99.90;;;;;;5068895;28;20255;-53
2023/01/01 12:21:49;;;;;;;3.70;1.27;;;12.90;99.90;;;;;;5067807;28;20028;-55
2023/01/01 12:24:16;;;;;;;6.72;1.10;;;12.90;99.90;;;;;;5069204;28;20127;-54
2023/01/01 12:27:09;;;;;;;4.32;1.13;;;12.90;99.90;;;;;;5068389;28;20089;-54
2023/01/01 12:29:44;;;;;;;4.75;0.90;;;12.90;99.90;;;;;;5061572;28;20100;-55
2023/01/01 12:32:31;;;;;;;4.00;0.97;;;12.90;99.90;;;;;;5066330;28;20046;-56
2023/01/01 12:35:18;;;;;;;4.72;1.42;;;13.00;99.90;;;;;;5068597;28;20453;-52
2023/01/01 12:38:02;;;;;;;4.85;1.10;;;13.00;99.90;;;;;;5047310;28;20170;-56
2023/01/01 12:40:38;;;;;;;6.28;1.60;;;12.90;99.90;;;;;;5073063;28;20029;-56
2023/01/01 12:43:30;;;;;;;5.43;0.77;;;12.90;99.90;;;;;;5054972;28;20619;-55
2023/01/01 12:46:18;;;;;;;7.80;1.08;;;12.90;99.90;;;;;;5021192;28;20115;-54
2023/01/01 12:48:56;;;;;;;3.60;0.90;;;13.00;99.90;;;;;;5066638;28;20472;-53
2023/01/01 12:51:48;;;;;;;4.15;0.95;;;13.00;99.90;;;;;;5071585;28;20186;-58
2023/01/01 12:54:47;;;;;;;5.80;1.10;;;13.00;99.90;;;;;;5072909;28;20028;-56
2023/01/01 12:57:30;;;;;;;8.50;2.20;;;12.90;99.90;;;;;;5072842;28;20021;-52
2023/01/01 12:59:59;;;;;;;4.78;1.10;;;12.90;99.90;;;;;;5068001;28;20025;-52
2023/01/01 13:02:28;;;;;;;6.45;1.63;;;12.90;99.90;;;;;;5071894;28;20019;-55
2023/01/01 13:04:59;;;;;;;4.80;0.73;;;12.90;99.90;;;;;;5070423;28;20551;-53
2023/01/01 13:07:30;;;;;;;4.13;1.00;;;12.80;99.90;;;;;;5072765;28;20389;-54
2023/01/01 13:09:59;;;;;;;6.15;0.88;;;12.80;99.90;;;;;;5071739;28;20013;-54